createdAt,value
2019-04-16T00:00:52.677Z,0.00
2019-04-16T00:01:52.680Z,0.00
2019-04-16T00:02:52.686Z,0.00
2019-04-16T00:03:57.383Z,0.00
2019-04-16T00:04:53.702Z,0.00
2019-04-16T00:05:53.378Z,0.00
2019-04-16T00:06:53.446Z,0.00
2019-04-16T00:07:53.499Z,0.00
2019-04-16T00:08:54.185Z,0.00
2019-04-16T00:09:57.178Z,0.00
2019-04-16T00:11:14.675Z,0.00
2019-04-16T00:12:14.676Z,0.00
2019-04-16T00:12:55.904Z,0.00
2019-04-16T00:15:29.510Z,0.00
2019-04-16T00:16:25.514Z,0.00
2019-04-16T00:17:25.516Z,0.00
2019-04-16T00:18:26.014Z,0.00
2019-04-16T00:19:26.017Z,0.00
2019-04-16T00:20:26.014Z,0.00
2019-04-16T00:21:29.513Z,0.00
2019-04-16T00:22:47.514Z,0.00
2019-04-16T00:23:26.517Z,0.00
2019-04-16T00:24:26.512Z,0.00
2019-04-16T00:25:26.513Z,0.00
2019-04-16T00:26:30.513Z,0.00
2019-04-16T00:27:28.740Z,0.00
2019-04-16T00:28:30.508Z,0.00
2019-04-16T00:29:27.012Z,0.00
2019-04-16T00:30:27.514Z,0.00
2019-04-16T00:31:52.011Z,0.00
2019-04-16T00:32:27.519Z,0.00
2019-04-16T00:33:27.514Z,0.00
2019-04-16T00:34:28.013Z,0.00
2019-04-16T00:35:49.012Z,0.00
2019-04-16T00:36:32.012Z,0.00
2019-04-16T00:37:28.013Z,0.00
2019-04-16T00:38:40.014Z,0.00
2019-04-16T00:39:28.450Z,0.00
2019-04-16T00:40:28.511Z,0.00
2019-04-16T00:41:28.522Z,0.00
2019-04-16T00:42:32.945Z,0.00
2019-04-16T00:45:00.238Z,0.00
2019-04-16T00:46:00.246Z,0.00
2019-04-16T00:48:34.854Z,0.00
2019-04-16T00:49:31.863Z,0.00
2019-04-16T00:50:31.861Z,0.00
2019-04-16T00:51:32.360Z,0.00
2019-04-16T00:52:36.675Z,0.00
2019-04-16T00:53:39.029Z,0.00
2019-04-16T00:54:32.361Z,0.00
2019-04-16T00:55:32.860Z,0.00
2019-04-16T00:56:32.860Z,0.00
2019-04-16T00:57:32.859Z,0.00
2019-04-16T00:58:32.859Z,0.00
2019-04-16T00:59:37.363Z,0.00
2019-04-16T01:00:33.375Z,0.00
2019-04-16T01:01:33.360Z,0.00
2019-04-16T01:02:33.359Z,0.00
2019-04-16T01:03:35.313Z,0.00
2019-04-16T01:04:33.859Z,0.00
2019-04-16T01:05:37.367Z,0.00
2019-04-16T01:06:33.858Z,0.00
2019-04-16T01:07:33.859Z,0.00
2019-04-16T01:08:34.359Z,0.00
2019-04-16T01:09:34.371Z,0.00
2019-04-16T01:10:38.366Z,0.00
2019-04-16T01:11:34.358Z,0.00
2019-04-16T01:12:34.869Z,0.00
2019-04-16T01:13:34.865Z,0.00
2019-04-16T01:14:34.859Z,0.00
2019-04-16T01:15:34.859Z,0.00
2019-04-16T01:16:38.370Z,0.00
2019-04-16T01:17:36.028Z,0.00
2019-04-16T01:18:38.505Z,0.00
2019-04-16T01:19:35.357Z,0.00
2019-04-16T01:20:35.857Z,0.00
2019-04-16T01:21:39.362Z,0.00
2019-04-16T01:22:35.857Z,0.00
2019-04-16T01:23:35.858Z,0.00
2019-04-16T01:26:07.590Z,0.00
2019-04-16T01:27:11.105Z,0.00
2019-04-16T01:28:07.595Z,0.00
2019-04-16T01:29:08.242Z,0.00
2019-04-16T01:30:08.092Z,0.00
2019-04-16T01:31:08.585Z,0.00
2019-04-16T01:32:33.101Z,0.00
2019-04-16T01:34:39.832Z,0.00
2019-04-16T01:36:00.841Z,0.00
2019-04-16T01:36:39.842Z,0.00
2019-04-16T01:37:43.847Z,0.00
2019-04-16T01:38:40.339Z,0.00
2019-04-16T01:40:01.361Z,0.00
2019-04-16T01:40:40.339Z,0.00
2019-04-16T01:41:40.837Z,0.00
2019-04-16T01:43:05.344Z,0.00
2019-04-16T01:43:40.839Z,0.00
2019-04-16T01:44:40.838Z,0.00
2019-04-16T01:46:02.833Z,0.00
2019-04-16T01:47:04.319Z,0.00
2019-04-16T01:48:06.899Z,0.00
2019-04-16T01:48:45.338Z,0.00
2019-04-16T01:50:02.840Z,0.00
2019-04-16T01:50:43.712Z,0.00
2019-04-16T01:51:44.601Z,0.00
2019-04-16T01:52:41.849Z,0.00
2019-04-16T01:54:06.838Z,0.00
2019-04-16T01:56:13.704Z,0.00
2019-04-16T01:57:13.712Z,0.00
2019-04-16T01:58:13.708Z,0.00
2019-04-16T01:59:17.208Z,0.00
2019-04-16T02:00:14.214Z,0.00
2019-04-16T02:01:14.216Z,0.00
2019-04-16T02:02:15.764Z,0.00
2019-04-16T02:03:17.548Z,0.00
2019-04-16T02:04:19.814Z,0.00
2019-04-16T02:05:14.713Z,0.00
2019-04-16T02:06:14.702Z,0.00
2019-04-16T02:07:36.209Z,0.00
2019-04-16T02:08:36.210Z,0.00
2019-04-16T02:09:22.366Z,0.00
2019-04-16T02:10:19.206Z,0.00
2019-04-16T02:11:15.712Z,0.00
2019-04-16T02:12:36.705Z,0.00
2019-04-16T02:13:15.961Z,0.00
2019-04-16T02:14:18.469Z,0.00
2019-04-16T02:15:16.207Z,0.00
2019-04-16T02:16:19.218Z,0.00
2019-04-16T02:17:16.219Z,0.00
2019-04-16T02:18:16.204Z,0.00
2019-04-16T02:19:16.704Z,0.00
2019-04-16T02:20:16.717Z,0.00
2019-04-16T02:21:20.708Z,0.00
2019-04-16T02:22:16.706Z,0.00
2019-04-16T02:23:17.432Z,0.00
2019-04-16T02:24:18.748Z,0.00
2019-04-16T02:25:20.151Z,0.00
2019-04-16T02:26:23.405Z,0.00
2019-04-16T02:27:17.708Z,0.00
2019-04-16T02:28:17.705Z,0.00
2019-04-16T02:29:17.704Z,0.00
2019-04-16T02:30:17.705Z,0.00
2019-04-16T02:31:42.708Z,0.00
2019-04-16T02:32:18.203Z,0.00
2019-04-16T02:33:18.228Z,0.00
2019-04-16T02:34:18.203Z,0.00
2019-04-16T02:35:18.699Z,0.00
2019-04-16T02:36:18.710Z,0.00
2019-04-16T02:37:42.705Z,0.00
2019-04-16T02:38:18.723Z,0.00
2019-04-16T02:39:25.522Z,0.00
2019-04-16T02:40:19.204Z,0.00
2019-04-16T02:41:23.271Z,0.00
2019-04-16T02:42:23.212Z,0.00
2019-04-16T02:43:19.704Z,0.00
2019-04-16T02:44:19.712Z,0.00
2019-04-16T02:45:23.720Z,0.00
2019-04-16T02:46:19.702Z,0.00
2019-04-16T02:47:20.201Z,0.00
2019-04-16T02:48:24.203Z,0.00
2019-04-16T02:49:23.676Z,0.00
2019-04-16T02:50:20.202Z,0.00
2019-04-16T02:51:20.703Z,0.00
2019-04-16T02:52:21.677Z,0.00
2019-04-16T02:53:24.309Z,0.00
2019-04-16T02:54:24.203Z,0.00
2019-04-16T02:55:20.707Z,0.00
2019-04-16T02:56:21.210Z,0.00
2019-04-16T02:57:26.041Z,0.00
2019-04-16T02:58:21.203Z,0.00
2019-04-16T02:59:25.203Z,0.00
2019-04-16T03:00:21.703Z,0.00
2019-04-16T03:02:53.996Z,0.00
2019-04-16T03:04:14.064Z,0.00
2019-04-16T03:04:58.339Z,0.00
2019-04-16T03:05:53.563Z,0.00
2019-04-16T03:06:53.563Z,0.00
2019-04-16T03:07:53.576Z,0.00
2019-04-16T03:08:53.557Z,0.00
2019-04-16T03:10:01.340Z,0.00
2019-04-16T03:10:54.067Z,0.00
2019-04-16T03:11:54.065Z,0.00
2019-04-16T03:12:54.063Z,0.00
2019-04-16T03:13:58.188Z,0.00
2019-04-16T03:15:00.816Z,0.00
2019-04-16T03:15:54.561Z,0.00
2019-04-16T03:16:54.563Z,0.00
2019-04-16T03:17:55.067Z,0.00
2019-04-16T03:18:55.061Z,0.00
2019-04-16T03:19:55.063Z,0.00
2019-04-16T03:20:59.062Z,0.00
2019-04-16T03:21:55.863Z,0.00
2019-04-16T03:24:49.924Z,0.00
2019-04-16T03:25:26.924Z,0.00
2019-04-16T03:26:30.923Z,0.00
2019-04-16T03:27:27.424Z,0.00
2019-04-16T03:30:02.875Z,0.00
2019-04-16T03:30:58.787Z,0.00
2019-04-16T03:32:02.288Z,0.00
2019-04-16T03:33:00.241Z,0.00
2019-04-16T03:37:06.314Z,0.00
2019-04-16T03:38:05.087Z,0.00
2019-04-16T03:39:02.819Z,0.00
2019-04-16T03:40:15.271Z,0.00
2019-04-16T03:41:03.320Z,0.00
2019-04-16T03:42:03.551Z,0.00
2019-04-16T03:43:31.874Z,0.00
2019-04-16T03:44:05.057Z,0.00
2019-04-16T03:45:08.007Z,0.00
2019-04-16T03:46:03.914Z,0.00
2019-04-16T03:47:04.060Z,0.00
2019-04-16T03:48:28.818Z,0.00
2019-04-16T03:49:04.318Z,0.00
2019-04-16T03:50:31.106Z,0.00
2019-04-16T03:51:04.802Z,0.00
2019-04-16T03:52:08.247Z,0.00
2019-04-16T03:53:04.819Z,0.00
2019-04-16T03:54:08.817Z,0.00
2019-04-16T03:55:26.568Z,0.00
2019-04-16T03:56:05.325Z,0.00
2019-04-16T03:57:05.331Z,0.00
2019-04-16T03:58:06.934Z,0.00
2019-04-16T03:59:11.588Z,0.00
2019-04-16T04:00:28.828Z,0.00
2019-04-16T04:01:26.818Z,0.00
2019-04-16T04:02:05.828Z,0.00
2019-04-16T04:03:26.934Z,0.00
2019-04-16T04:04:30.842Z,0.00
2019-04-16T04:05:27.326Z,0.00
2019-04-16T04:06:08.088Z,0.00
2019-04-16T04:07:09.007Z,0.00
2019-04-16T04:08:06.817Z,0.00
2019-04-16T04:09:06.816Z,0.00
2019-04-16T04:10:34.261Z,0.00
2019-04-16T04:11:10.174Z,0.00
2019-04-16T04:12:12.252Z,0.00
2019-04-16T04:13:07.319Z,0.00
2019-04-16T04:14:31.750Z,0.00
2019-04-16T04:15:32.322Z,0.00
2019-04-16T04:16:07.333Z,0.00
2019-04-16T04:17:09.283Z,0.00
2019-04-16T04:18:11.288Z,0.00
2019-04-16T04:19:08.017Z,0.00
2019-04-16T04:20:08.021Z,0.00
2019-04-16T04:21:32.316Z,0.00
2019-04-16T04:24:00.985Z,0.00
2019-04-16T04:24:39.558Z,5.63
2019-04-16T04:25:39.560Z,5.63
2019-04-16T04:26:44.063Z,5.63
2019-04-16T04:28:01.057Z,5.63
2019-04-16T04:28:40.057Z,5.63
2019-04-16T04:29:40.057Z,5.63
2019-04-16T04:31:03.579Z,5.63
2019-04-16T04:31:40.560Z,5.63
2019-04-16T04:32:47.278Z,5.63
2019-04-16T04:33:42.543Z,11.25
2019-04-16T04:36:12.292Z,11.25
2019-04-16T04:37:12.296Z,11.25
2019-04-16T04:38:16.296Z,11.25
2019-04-16T04:39:15.319Z,11.25
2019-04-16T04:40:15.864Z,16.88
2019-04-16T04:41:12.803Z,16.88
2019-04-16T04:42:12.792Z,16.88
2019-04-16T04:43:15.727Z,16.88
2019-04-16T04:44:37.293Z,16.88
2019-04-16T04:45:34.292Z,22.50
2019-04-16T04:46:15.025Z,22.50
2019-04-16T04:47:15.550Z,22.50
2019-04-16T04:48:34.799Z,22.50
2019-04-16T04:49:38.791Z,28.13
2019-04-16T04:50:13.791Z,28.13
2019-04-16T04:51:14.292Z,28.13
2019-04-16T04:52:14.969Z,28.13
2019-04-16T04:53:15.641Z,28.13
2019-04-16T04:54:14.291Z,33.75
2019-04-16T04:55:18.789Z,33.75
2019-04-16T04:56:14.832Z,33.75
2019-04-16T04:57:35.787Z,33.75
2019-04-16T04:58:14.957Z,39.38
2019-04-16T04:59:36.751Z,39.38
2019-04-16T05:00:15.291Z,39.38
2019-04-16T05:02:50.471Z,45.00
2019-04-16T05:04:11.482Z,45.00
2019-04-16T05:04:52.486Z,45.00
2019-04-16T05:06:11.982Z,45.00
2019-04-16T05:06:54.412Z,45.00
2019-04-16T05:07:50.981Z,45.00
2019-04-16T05:08:50.983Z,50.63
2019-04-16T05:09:51.481Z,50.63
2019-04-16T05:11:15.375Z,50.63
2019-04-16T05:13:26.789Z,50.63
2019-04-16T05:14:26.795Z,56.25
2019-04-16T05:15:29.402Z,56.25
2019-04-16T05:18:05.569Z,56.25
2019-04-16T05:18:58.531Z,56.25
2019-04-16T05:19:58.535Z,61.88
2019-04-16T05:20:59.029Z,61.88
2019-04-16T05:21:59.029Z,61.88
2019-04-16T05:22:59.029Z,61.88
2019-04-16T05:24:02.538Z,61.88
2019-04-16T05:25:01.477Z,67.50
2019-04-16T05:25:59.541Z,67.50
2019-04-16T05:26:59.529Z,67.50
2019-04-16T05:28:02.462Z,67.50
2019-04-16T05:29:03.534Z,67.50
2019-04-16T05:30:22.100Z,67.50
2019-04-16T05:31:00.028Z,73.13
2019-04-16T05:32:00.033Z,73.13
2019-04-16T05:33:04.931Z,73.13
2019-04-16T05:34:27.464Z,73.13
2019-04-16T05:36:53.019Z,73.13
2019-04-16T05:37:32.017Z,73.13
2019-04-16T05:38:32.019Z,73.13
2019-04-16T05:39:36.518Z,73.13
2019-04-16T05:40:35.122Z,73.13
2019-04-16T05:41:32.515Z,73.13
2019-04-16T05:42:32.524Z,73.13
2019-04-16T05:43:54.017Z,78.75
2019-04-16T05:44:57.020Z,78.75
2019-04-16T05:45:47.067Z,78.75
2019-04-16T05:46:33.025Z,78.75
2019-04-16T05:47:33.020Z,78.75
2019-04-16T05:48:33.517Z,78.75
2019-04-16T05:49:33.517Z,78.75
2019-04-16T05:50:37.564Z,84.38
2019-04-16T05:51:33.517Z,84.38
2019-04-16T05:52:35.861Z,84.38
2019-04-16T05:53:34.016Z,84.38
2019-04-16T05:54:34.017Z,84.38
2019-04-16T05:55:34.017Z,84.38
2019-04-16T05:58:08.957Z,90.00
2019-04-16T05:59:08.962Z,90.00
2019-04-16T06:00:10.255Z,90.00
2019-04-16T06:02:49.599Z,90.00
2019-04-16T06:03:40.698Z,90.00
2019-04-16T06:04:40.698Z,95.63
2019-04-16T06:06:04.637Z,95.63
2019-04-16T06:08:16.055Z,95.63
2019-04-16T06:09:13.283Z,95.63
2019-04-16T06:10:17.063Z,95.63
2019-04-16T06:11:36.442Z,101.25
2019-04-16T06:12:13.061Z,101.25
2019-04-16T06:13:37.559Z,101.25
2019-04-16T06:14:16.992Z,101.25
2019-04-16T06:15:13.843Z,101.25
2019-04-16T06:16:13.211Z,101.25
2019-04-16T06:17:13.560Z,101.25
2019-04-16T06:18:14.332Z,106.88
2019-04-16T06:19:17.560Z,106.88
2019-04-16T06:20:19.558Z,106.88
2019-04-16T06:21:35.059Z,106.88
2019-04-16T06:22:14.287Z,106.88
2019-04-16T06:23:14.560Z,106.88
2019-04-16T06:24:18.562Z,112.50
2019-04-16T06:25:14.568Z,112.50
2019-04-16T06:26:16.070Z,112.50
2019-04-16T06:27:36.060Z,112.50
2019-04-16T06:28:15.059Z,112.50
2019-04-16T06:29:15.059Z,112.50
2019-04-16T06:30:18.560Z,112.50
2019-04-16T06:34:18.234Z,118.13
2019-04-16T06:35:20.744Z,118.13
2019-04-16T06:36:18.369Z,118.13
2019-04-16T06:37:21.796Z,123.75
2019-04-16T06:38:18.741Z,123.75
2019-04-16T06:39:18.087Z,123.75
2019-04-16T06:40:22.253Z,123.75
2019-04-16T06:41:18.789Z,129.38
2019-04-16T06:42:22.677Z,129.38
2019-04-16T06:43:19.240Z,129.38
2019-04-16T06:44:19.244Z,135.00
2019-04-16T06:45:45.677Z,135.00
2019-04-16T06:46:18.833Z,129.38
2019-04-16T06:50:32.461Z,140.63
2019-04-16T06:51:44.646Z,140.63
2019-04-16T06:52:22.494Z,146.25
2019-04-16T06:53:43.998Z,151.88
2019-04-16T06:54:25.352Z,146.25
2019-04-16T06:55:22.994Z,146.25
2019-04-16T06:56:26.500Z,146.25
2019-04-16T07:00:26.144Z,157.50
2019-04-16T07:01:30.670Z,163.13
2019-04-16T07:02:26.150Z,163.13
2019-04-16T07:03:27.429Z,163.13
2019-04-16T07:04:29.482Z,168.75
2019-04-16T07:05:31.390Z,168.75
2019-04-16T07:06:26.654Z,174.38
2019-04-16T07:07:39.730Z,180.00
2019-04-16T07:08:37.517Z,180.00
2019-04-16T07:09:40.376Z,180.00
2019-04-16T07:10:28.904Z,180.00
2019-04-16T07:11:27.650Z,185.63
2019-04-16T07:12:31.665Z,185.63
2019-04-16T07:13:27.649Z,191.25
2019-04-16T07:14:27.775Z,191.25
2019-04-16T07:15:28.965Z,196.88
2019-04-16T07:16:29.083Z,191.25
2019-04-16T07:17:33.649Z,191.25
2019-04-16T07:18:28.159Z,196.88
2019-04-16T07:21:01.356Z,202.50
2019-04-16T07:21:59.897Z,202.50
2019-04-16T07:23:03.416Z,202.50
2019-04-16T07:25:32.194Z,208.13
2019-04-16T07:26:32.109Z,208.13
2019-04-16T07:27:36.114Z,208.13
2019-04-16T07:28:35.279Z,208.13
2019-04-16T07:29:33.414Z,208.13
2019-04-16T07:30:32.202Z,213.75
2019-04-16T07:31:33.890Z,219.38
2019-04-16T07:32:32.656Z,213.75
2019-04-16T07:33:36.151Z,213.75
2019-04-16T07:34:53.651Z,213.75
2019-04-16T07:35:32.648Z,213.75
2019-04-16T07:36:56.618Z,219.38
2019-04-16T07:37:33.843Z,219.38
2019-04-16T07:39:05.023Z,219.38
2019-04-16T07:39:36.907Z,219.38
2019-04-16T07:40:32.738Z,219.38
2019-04-16T07:41:33.648Z,225.00
2019-04-16T07:42:33.648Z,225.00
2019-04-16T07:43:33.654Z,225.00
2019-04-16T07:47:41.902Z,225.00
2019-04-16T07:48:40.456Z,225.00
2019-04-16T07:51:36.745Z,225.00
2019-04-16T07:52:15.222Z,225.00
2019-04-16T07:53:36.722Z,230.63
2019-04-16T07:54:15.721Z,230.63
2019-04-16T07:55:19.221Z,230.63
2019-04-16T07:56:15.730Z,230.63
2019-04-16T07:57:16.221Z,230.63
2019-04-16T07:59:47.598Z,230.63
2019-04-16T08:00:51.536Z,230.63
2019-04-16T08:01:47.966Z,230.63
2019-04-16T08:02:50.675Z,230.63
2019-04-16T08:03:48.094Z,230.63
2019-04-16T08:04:48.092Z,230.63
2019-04-16T08:05:52.096Z,236.25
2019-04-16T08:06:48.591Z,236.25
2019-04-16T08:07:49.766Z,236.25
2019-04-16T08:08:48.591Z,236.25
2019-04-16T08:10:09.591Z,236.25
2019-04-16T08:11:13.591Z,236.25
2019-04-16T08:11:49.091Z,241.88
2019-04-16T08:12:49.091Z,236.25
2019-04-16T08:13:49.091Z,236.25
2019-04-16T08:15:14.316Z,241.88
2019-04-16T08:15:48.814Z,241.88
2019-04-16T08:17:14.588Z,241.88
2019-04-16T08:17:50.564Z,241.88
2019-04-16T08:20:21.444Z,247.50
2019-04-16T08:21:22.797Z,247.50
2019-04-16T08:22:24.815Z,247.50
2019-04-16T08:25:15.005Z,247.50
2019-04-16T08:26:01.870Z,253.13
2019-04-16T08:28:27.271Z,253.13
2019-04-16T08:29:26.510Z,253.13
2019-04-16T08:30:26.793Z,253.13
2019-04-16T08:31:25.298Z,253.13
2019-04-16T08:32:49.736Z,258.75
2019-04-16T08:33:29.428Z,258.75
2019-04-16T08:34:25.297Z,258.75
2019-04-16T08:35:46.793Z,258.75
2019-04-16T08:37:58.728Z,264.38
2019-04-16T08:38:59.673Z,264.38
2019-04-16T08:39:57.169Z,264.38
2019-04-16T08:40:57.670Z,264.38
2019-04-16T08:42:18.749Z,264.38
2019-04-16T08:42:58.578Z,270.00
2019-04-16T08:44:03.776Z,270.00
2019-04-16T08:44:58.169Z,270.00
2019-04-16T08:46:19.169Z,270.00
2019-04-16T08:46:59.059Z,270.00
2019-04-16T08:47:58.175Z,275.63
2019-04-16T08:49:04.131Z,275.63
2019-04-16T08:49:58.673Z,275.63
2019-04-16T08:50:59.202Z,275.63
2019-04-16T08:52:19.669Z,275.63
2019-04-16T08:52:59.171Z,275.63
2019-04-16T08:54:23.669Z,275.63
2019-04-16T08:54:59.169Z,275.63
2019-04-16T08:55:59.170Z,275.63
2019-04-16T08:57:20.672Z,281.25
2019-04-16T08:57:59.672Z,281.25
2019-04-16T08:59:01.294Z,281.25
2019-04-16T09:00:25.169Z,281.25
2019-04-16T09:01:01.105Z,281.25
2019-04-16T09:02:00.176Z,281.25
2019-04-16T09:03:00.168Z,281.25
2019-04-16T09:04:02.701Z,281.25
2019-04-16T09:05:25.677Z,286.88
2019-04-16T09:06:21.669Z,286.88
2019-04-16T09:07:11.383Z,286.88
2019-04-16T09:08:22.631Z,286.88
2019-04-16T09:09:24.764Z,286.88
2019-04-16T09:10:10.128Z,286.88
2019-04-16T09:12:40.754Z,286.88
2019-04-16T09:13:35.937Z,292.50
2019-04-16T09:14:35.942Z,292.50
2019-04-16T09:15:36.454Z,298.13
2019-04-16T09:16:39.932Z,298.13
2019-04-16T09:17:36.443Z,292.50
2019-04-16T09:18:57.432Z,298.13
2019-04-16T09:19:36.942Z,298.13
2019-04-16T09:20:57.944Z,298.13
2019-04-16T09:21:36.935Z,298.13
2019-04-16T09:23:01.933Z,298.13
2019-04-16T09:23:38.868Z,298.13
2019-04-16T09:24:58.440Z,303.75
2019-04-16T09:26:12.392Z,303.75
2019-04-16T09:26:37.527Z,303.75
2019-04-16T09:28:23.779Z,303.75
2019-04-16T09:28:37.933Z,309.38
2019-04-16T09:29:40.416Z,309.38
2019-04-16T09:30:37.938Z,309.38
2019-04-16T09:31:40.432Z,309.38
2019-04-16T09:32:38.432Z,315.00
2019-04-16T09:36:45.151Z,320.63
2019-04-16T09:37:45.159Z,320.63
2019-04-16T09:40:20.997Z,320.63
2019-04-16T09:41:21.007Z,320.63
2019-04-16T09:42:21.005Z,320.63
2019-04-16T09:43:21.508Z,326.25
2019-04-16T09:44:29.751Z,331.88
2019-04-16T09:45:24.331Z,326.25
2019-04-16T09:46:51.031Z,326.25
2019-04-16T09:48:53.235Z,331.88
2019-04-16T09:49:56.732Z,331.88
2019-04-16T09:50:53.241Z,337.50
2019-04-16T09:51:53.732Z,337.50
2019-04-16T09:52:55.481Z,337.50
2019-04-16T09:53:53.733Z,337.50
2019-04-16T09:54:57.735Z,337.50
2019-04-16T09:57:25.479Z,348.75
2019-04-16T09:58:25.502Z,343.13
2019-04-16T09:59:25.641Z,343.13
2019-04-16T10:00:29.486Z,343.13
2019-04-16T10:01:25.208Z,343.13
2019-04-16T10:02:27.995Z,343.13
2019-04-16T10:03:28.334Z,348.75
2019-04-16T10:04:26.489Z,354.38
2019-04-16T10:05:29.506Z,348.75
2019-04-16T10:06:30.486Z,348.75
2019-04-16T10:07:26.494Z,354.38
2019-04-16T10:08:29.393Z,354.38
2019-04-16T10:09:26.999Z,354.38
2019-04-16T10:10:27.960Z,354.38
2019-04-16T10:11:28.421Z,360.00
2019-04-16T10:12:30.486Z,360.00
2019-04-16T10:13:32.888Z,360.00
2019-04-16T10:14:27.491Z,360.00
2019-04-16T10:15:27.506Z,365.63
2019-04-16T10:18:24.230Z,365.63
2019-04-16T10:19:00.698Z,365.63
2019-04-16T10:19:59.252Z,371.25
2019-04-16T10:20:59.240Z,376.88
2019-04-16T10:22:01.197Z,376.88
2019-04-16T10:23:24.750Z,371.25
2019-04-16T10:23:59.737Z,376.88
2019-04-16T10:24:59.744Z,376.88
2019-04-16T10:26:00.260Z,376.88
2019-04-16T10:27:00.712Z,382.50
2019-04-16T10:28:01.973Z,388.13
2019-04-16T10:29:06.030Z,388.13
2019-04-16T10:30:21.741Z,388.13
2019-04-16T10:31:22.728Z,388.13
2019-04-16T10:32:21.740Z,393.75
2019-04-16T10:33:21.738Z,393.75
2019-04-16T10:34:25.739Z,399.38
2019-04-16T10:36:37.121Z,405.00
2019-04-16T10:37:54.552Z,405.00
2019-04-16T10:38:32.618Z,410.63
2019-04-16T10:39:58.060Z,410.63
2019-04-16T10:42:04.445Z,416.25
2019-04-16T10:43:06.881Z,421.88
2019-04-16T10:44:04.447Z,421.88
2019-04-16T10:45:09.909Z,427.50
2019-04-16T10:46:09.476Z,427.50
2019-04-16T10:47:25.983Z,427.50
2019-04-16T10:48:04.950Z,433.13
2019-04-16T10:49:04.953Z,433.13
2019-04-16T10:50:29.969Z,438.75
2019-04-16T10:51:07.411Z,438.75
2019-04-16T10:53:36.904Z,450.00
2019-04-16T10:54:37.990Z,450.00
2019-04-16T10:55:40.441Z,450.00
2019-04-16T10:56:59.404Z,450.00
2019-04-16T10:57:38.518Z,455.63
2019-04-16T10:58:37.423Z,455.63
2019-04-16T10:59:37.410Z,466.88
2019-04-16T11:00:41.911Z,461.25
2019-04-16T11:01:38.883Z,466.88
2019-04-16T11:02:58.912Z,466.88
2019-04-16T11:03:37.947Z,472.50
2019-04-16T11:06:13.211Z,472.50
2019-04-16T11:07:30.685Z,478.13
2019-04-16T11:08:09.683Z,478.13
2019-04-16T11:09:31.193Z,483.75
2019-04-16T11:10:32.146Z,483.75
2019-04-16T11:11:40.673Z,489.38
2019-04-16T11:12:11.661Z,500.63
2019-04-16T11:14:41.896Z,500.63
2019-04-16T11:15:41.920Z,500.63
2019-04-16T11:17:06.894Z,506.25
2019-04-16T11:17:42.399Z,511.88
2019-04-16T11:19:03.405Z,511.88
2019-04-16T11:19:42.394Z,523.13
2019-04-16T11:20:42.406Z,540.00
2019-04-16T11:22:07.396Z,545.63
2019-04-16T11:23:06.877Z,984.38
2019-04-16T11:24:03.933Z,2812.50
2019-04-16T11:24:42.911Z,3825.00
2019-04-16T11:27:17.642Z,3735.00
2019-04-16T11:28:37.120Z,3751.88
2019-04-16T11:29:16.149Z,3892.50
2019-04-16T11:30:17.158Z,3948.75
2019-04-16T11:31:15.218Z,3960.00
2019-04-16T11:32:40.334Z,4111.88
2019-04-16T11:33:15.169Z,4213.13
2019-04-16T11:34:15.650Z,4230.00
2019-04-16T11:35:36.673Z,4263.75
2019-04-16T11:36:19.492Z,4342.50
2019-04-16T11:37:15.689Z,4370.63
2019-04-16T11:38:20.185Z,4359.38
2019-04-16T11:39:17.184Z,4370.63
2019-04-16T11:40:37.176Z,4432.50
2019-04-16T11:41:16.666Z,4455.00
2019-04-16T11:43:51.415Z,4511.25
2019-04-16T11:45:08.953Z,4567.50
2019-04-16T11:45:47.959Z,4511.25
2019-04-16T11:48:41.183Z,4291.88
2019-04-16T11:49:45.210Z,4325.63
2019-04-16T11:50:20.188Z,4348.13
2019-04-16T11:51:20.205Z,4336.88
2019-04-16T11:52:41.712Z,4393.13
2019-04-16T11:53:41.704Z,4432.50
2019-04-16T11:54:20.693Z,4438.13
2019-04-16T11:55:24.192Z,4516.88
2019-04-16T11:56:22.916Z,4550.63
2019-04-16T11:58:52.538Z,4550.63
2019-04-16T12:00:06.078Z,4578.75
2019-04-16T12:00:56.044Z,4606.88
2019-04-16T12:02:20.080Z,4612.50
2019-04-16T12:03:14.068Z,4545.00
2019-04-16T12:03:55.946Z,4528.13
2019-04-16T12:04:57.260Z,4466.25
2019-04-16T12:06:02.134Z,4365.00
2019-04-16T12:06:53.543Z,4252.50
2019-04-16T12:07:53.542Z,4246.88
2019-04-16T12:08:53.557Z,4235.63
2019-04-16T12:09:54.042Z,4162.50
2019-04-16T12:10:54.064Z,4235.63
2019-04-16T12:11:58.042Z,4410.00
2019-04-16T12:12:54.092Z,4494.38
2019-04-16T12:13:54.558Z,4573.13
2019-04-16T12:14:56.557Z,4680.00
2019-04-16T12:15:54.568Z,4691.25
2019-04-16T12:16:54.578Z,4685.63
2019-04-16T12:17:59.088Z,4640.63
2019-04-16T12:18:55.043Z,4601.25
2019-04-16T12:19:55.142Z,4623.75
2019-04-16T12:20:55.096Z,4595.63
2019-04-16T12:23:32.398Z,4353.75
2019-04-16T12:24:26.875Z,4325.63
2019-04-16T12:25:29.292Z,4151.25
2019-04-16T12:26:27.398Z,4061.25
2019-04-16T12:27:27.422Z,4083.75
2019-04-16T12:28:28.918Z,4207.50
2019-04-16T12:29:31.395Z,4252.50
2019-04-16T12:30:27.893Z,4325.63
2019-04-16T12:31:27.877Z,4398.75
2019-04-16T12:32:27.916Z,4387.50
2019-04-16T12:33:27.880Z,4342.50
2019-04-16T12:34:28.445Z,4275.00
2019-04-16T12:35:34.814Z,4224.38
2019-04-16T12:36:28.382Z,4196.25
2019-04-16T12:37:28.384Z,4123.13
2019-04-16T12:38:28.896Z,4033.13
2019-04-16T12:39:49.875Z,3870.00
2019-04-16T12:40:32.421Z,3735.00
2019-04-16T12:41:28.939Z,3819.38
2019-04-16T12:44:24.456Z,4252.50
2019-04-16T12:45:21.698Z,4426.88
2019-04-16T12:46:25.197Z,4561.88
2019-04-16T12:48:32.442Z,4522.50
2019-04-16T12:49:31.796Z,4528.13
2019-04-16T12:50:32.462Z,4516.88
2019-04-16T12:51:39.751Z,4533.75
2019-04-16T12:52:32.939Z,4500.00
2019-04-16T12:53:54.249Z,4488.75
2019-04-16T12:54:32.992Z,4516.88
2019-04-16T12:55:54.550Z,4516.88
2019-04-16T12:56:41.073Z,4376.25
2019-04-16T12:57:33.445Z,4286.25
2019-04-16T12:58:33.446Z,4286.25
2019-04-16T12:59:36.373Z,4207.50
2019-04-16T13:00:33.938Z,4207.50
2019-04-16T13:01:58.438Z,4269.38
2019-04-16T13:02:33.939Z,4376.25
2019-04-16T13:03:34.447Z,4460.63
2019-04-16T13:06:26.985Z,4511.25
2019-04-16T13:07:09.845Z,4528.13
2019-04-16T13:08:05.843Z,4584.38
2019-04-16T13:09:27.348Z,4511.25
2019-04-16T13:10:06.692Z,4404.38
2019-04-16T13:11:08.628Z,4376.25
2019-04-16T13:12:10.530Z,4348.13
2019-04-16T13:13:06.843Z,4331.25
2019-04-16T13:14:07.010Z,4336.88
2019-04-16T13:15:27.879Z,4246.88
2019-04-16T13:16:06.849Z,4089.38
2019-04-16T13:17:31.843Z,4038.75
2019-04-16T13:18:08.778Z,4044.38
2019-04-16T13:19:28.343Z,4100.63
2019-04-16T13:20:07.344Z,4173.75
2019-04-16T13:21:07.846Z,4224.38
2019-04-16T13:22:07.843Z,4230.00
2019-04-16T13:23:32.354Z,4168.13
2019-04-16T13:24:07.843Z,4021.88
2019-04-16T13:25:08.349Z,4083.75
2019-04-16T13:26:11.814Z,4151.25
2019-04-16T13:27:29.343Z,4162.50
2019-04-16T13:28:16.780Z,4140.00
2019-04-16T13:29:08.841Z,4173.75
2019-04-16T13:30:08.848Z,4252.50
2019-04-16T13:31:08.950Z,4252.50
2019-04-16T13:32:08.928Z,4162.50
2019-04-16T13:33:33.844Z,4140.00
2019-04-16T13:34:33.778Z,4106.25
2019-04-16T13:35:09.345Z,3982.50
2019-04-16T13:36:09.435Z,4005.00
2019-04-16T13:40:16.512Z,4111.88
2019-04-16T13:41:16.521Z,4050.00
2019-04-16T13:42:16.520Z,3982.50
2019-04-16T13:44:52.294Z,3875.63
2019-04-16T13:47:19.824Z,3819.38
2019-04-16T13:48:19.827Z,3650.63
2019-04-16T13:49:19.830Z,3560.63
2019-04-16T13:50:26.762Z,3656.25
2019-04-16T13:51:20.327Z,3791.25
2019-04-16T13:52:24.945Z,3796.88
2019-04-16T13:53:22.865Z,3892.50
2019-04-16T13:54:20.827Z,3943.13
2019-04-16T13:55:23.828Z,3954.38
2019-04-16T13:56:20.830Z,3971.25
2019-04-16T13:57:41.828Z,3993.75
2019-04-16T13:58:42.327Z,3976.88
2019-04-16T13:59:21.333Z,3960.00
2019-04-16T14:00:24.349Z,3898.13
2019-04-16T14:01:45.226Z,3903.75
2019-04-16T14:02:47.792Z,3841.88
2019-04-16T14:03:23.969Z,3819.38
2019-04-16T14:04:21.837Z,3802.50
2019-04-16T14:05:21.827Z,3791.25
2019-04-16T14:06:47.330Z,3723.75
2019-04-16T14:07:25.268Z,3678.75
2019-04-16T14:08:43.333Z,3661.88
2019-04-16T14:09:22.324Z,3628.13
2019-04-16T14:10:43.834Z,3459.38
2019-04-16T14:12:58.012Z,3403.13
2019-04-16T14:13:57.373Z,3504.38
2019-04-16T14:14:58.020Z,3588.75
2019-04-16T14:17:59.140Z,3611.25
2019-04-16T14:18:32.751Z,3633.75
2019-04-16T14:19:29.800Z,3538.13